createdAt,value
2022-08-26T00:00:18.529Z,23.86
2022-08-26T00:00:59.628Z,23.87
2022-08-26T00:01:39.518Z,23.89
2022-08-26T00:02:20.707Z,23.89
2022-08-26T00:03:02.547Z,23.88
2022-08-26T00:03:43.611Z,23.84
2022-08-26T00:04:23.749Z,23.85
2022-08-26T00:05:04.588Z,23.82
2022-08-26T00:05:45.541Z,23.88
2022-08-26T00:06:26.595Z,23.74
2022-08-26T00:07:06.514Z,23.68
2022-08-26T00:07:46.580Z,23.80
2022-08-26T00:08:28.562Z,23.81
2022-08-26T00:09:10.731Z,23.88
2022-08-26T00:09:54.469Z,23.81
2022-08-26T00:10:35.564Z,23.80
2022-08-26T00:11:16.494Z,23.81
2022-08-26T00:12:06.573Z,23.72
2022-08-26T00:12:47.518Z,23.82
2022-08-26T00:13:27.572Z,23.74
2022-08-26T00:14:07.540Z,23.73
2022-08-26T00:14:48.572Z,23.62
2022-08-26T00:15:30.512Z,23.71
2022-08-26T00:16:13.601Z,23.80
2022-08-26T00:16:53.542Z,23.64
2022-08-26T00:17:35.569Z,23.62
2022-08-26T00:18:22.351Z,23.74
2022-08-26T00:19:04.010Z,23.66
2022-08-26T00:19:44.531Z,23.59
2022-08-26T00:20:32.591Z,23.52
2022-08-26T00:21:15.507Z,23.63
2022-08-26T00:21:56.621Z,23.51
2022-08-26T00:22:36.503Z,23.55
2022-08-26T00:23:16.604Z,23.49
2022-08-26T00:23:56.492Z,23.58
2022-08-26T00:24:36.637Z,23.65
2022-08-26T00:25:18.593Z,23.67
2022-08-26T00:26:00.559Z,23.72
2022-08-26T00:26:41.653Z,23.65
2022-08-26T00:27:22.572Z,23.71
2022-08-26T00:28:02.488Z,23.58
2022-08-26T00:28:42.563Z,23.68
2022-08-26T00:29:23.492Z,23.71
2022-08-26T00:30:03.555Z,23.63
2022-08-26T00:30:46.548Z,23.55
2022-08-26T00:31:28.733Z,23.54
2022-08-26T00:32:12.503Z,23.45
2022-08-26T00:32:57.061Z,23.56
2022-08-26T00:33:37.484Z,23.44
2022-08-26T00:34:19.548Z,23.51
2022-08-26T00:34:59.481Z,23.43
2022-08-26T00:35:43.840Z,23.48
2022-08-26T00:36:25.582Z,23.48
2022-08-26T00:37:13.377Z,23.41
2022-08-26T00:37:56.492Z,23.43
2022-08-26T00:38:37.825Z,23.41
2022-08-26T00:39:18.497Z,23.42
2022-08-26T00:39:58.557Z,23.30
2022-08-26T00:40:50.487Z,23.32
2022-08-26T00:41:37.535Z,23.36
2022-08-26T00:42:11.217Z,23.31
2022-08-26T00:42:58.485Z,23.23
2022-08-26T00:43:46.229Z,23.28
2022-08-26T00:44:35.496Z,23.17
2022-08-26T00:45:11.636Z,23.13
2022-08-26T00:46:04.541Z,23.17
2022-08-26T00:46:55.517Z,23.17
2022-08-26T00:47:59.546Z,23.15
2022-08-26T00:48:40.480Z,23.08
2022-08-26T00:49:41.552Z,23.14
2022-08-26T00:50:30.476Z,23.26
2022-08-26T00:51:22.569Z,23.20
2022-08-26T00:52:06.517Z,23.16
2022-08-26T00:52:51.605Z,23.17
2022-08-26T00:53:36.473Z,23.10
2022-08-26T00:54:17.565Z,22.98
2022-08-26T00:55:20.364Z,23.15
2022-08-26T00:56:14.846Z,23.22
2022-08-26T00:57:16.369Z,23.35
2022-08-26T00:57:57.590Z,23.15
2022-08-26T00:58:40.487Z,23.24
2022-08-26T00:59:22.560Z,23.10
2022-08-26T01:00:05.499Z,23.24
2022-08-26T01:00:45.659Z,23.15
2022-08-26T01:01:26.514Z,23.24
2022-08-26T01:02:08.581Z,23.24
2022-08-26T01:03:02.488Z,23.11
2022-08-26T01:03:47.613Z,23.11
2022-08-26T01:04:29.474Z,22.97
2022-08-26T01:05:11.716Z,23.14
2022-08-26T01:05:53.483Z,23.03
2022-08-26T01:06:34.534Z,23.11
2022-08-26T01:07:15.465Z,23.16
2022-08-26T01:07:56.524Z,23.19
2022-08-26T01:08:36.510Z,23.13
2022-08-26T01:09:17.533Z,23.11
2022-08-26T01:09:58.440Z,22.99
2022-08-26T01:10:40.538Z,23.04
2022-08-26T01:11:21.490Z,22.99
2022-08-26T01:12:05.543Z,22.90
2022-08-26T01:12:52.461Z,22.96
2022-08-26T01:13:33.568Z,22.89
2022-08-26T01:14:15.484Z,23.00
2022-08-26T01:14:56.628Z,22.93
2022-08-26T01:15:40.452Z,22.91
2022-08-26T01:16:25.465Z,22.90
2022-08-26T01:17:10.471Z,22.91
2022-08-26T01:17:50.548Z,22.86
2022-08-26T01:18:33.461Z,22.96
2022-08-26T01:19:34.514Z,22.92
2022-08-26T01:20:34.374Z,22.89
2022-08-26T01:21:40.625Z,22.93
2022-08-26T01:22:22.990Z,22.75
2022-08-26T01:23:21.731Z,22.97
2022-08-26T01:23:58.459Z,23.01
2022-08-26T01:24:45.484Z,22.97
2022-08-26T01:25:25.466Z,22.92
2022-08-26T01:26:19.883Z,22.97
2022-08-26T01:26:59.320Z,22.96
2022-08-26T01:27:49.222Z,22.92
2022-08-26T01:28:28.255Z,22.96
2022-08-26T01:29:20.216Z,22.87
2022-08-26T01:30:00.494Z,22.88
2022-08-26T01:30:42.542Z,22.94
2022-08-26T01:31:25.500Z,22.85
2022-08-26T01:32:06.508Z,22.84
2022-08-26T01:32:47.454Z,22.83
2022-08-26T01:33:39.992Z,22.65
2022-08-26T01:34:29.459Z,22.73
2022-08-26T01:35:17.459Z,22.78
2022-08-26T01:35:53.441Z,22.71
2022-08-26T01:36:41.468Z,22.83
2022-08-26T01:37:26.335Z,22.83
2022-08-26T01:38:13.452Z,22.73
2022-08-26T01:38:47.193Z,22.80
2022-08-26T01:39:35.457Z,22.68
2022-08-26T01:40:14.343Z,22.73
2022-08-26T01:40:57.536Z,22.67
2022-08-26T01:41:31.563Z,22.68
2022-08-26T01:42:11.329Z,22.57
2022-08-26T01:42:55.445Z,22.65
2022-08-26T01:43:31.572Z,22.61
2022-08-26T01:44:13.076Z,22.61
2022-08-26T01:45:16.445Z,22.56
2022-08-26T01:45:54.491Z,22.58
2022-08-26T01:46:37.471Z,22.65
2022-08-26T01:47:20.498Z,22.67
2022-08-26T01:48:03.428Z,22.66
2022-08-26T01:48:44.507Z,22.63
2022-08-26T01:49:26.449Z,22.63
2022-08-26T01:50:13.616Z,22.51
2022-08-26T01:50:59.467Z,22.57
2022-08-26T01:51:50.474Z,22.61
2022-08-26T01:52:28.422Z,22.63
2022-08-26T01:53:24.431Z,22.56
2022-08-26T01:53:58.460Z,22.61
2022-08-26T01:54:50.456Z,22.55
2022-08-26T01:55:33.098Z,22.54
2022-08-26T01:56:22.450Z,22.60
2022-08-26T01:57:04.464Z,22.57
2022-08-26T01:57:44.490Z,22.59
2022-08-26T01:58:33.435Z,22.61
2022-08-26T01:59:17.737Z,22.52
2022-08-26T02:00:02.432Z,22.49
2022-08-26T02:00:44.135Z,22.53
2022-08-26T02:01:28.914Z,22.60
2022-08-26T02:02:17.470Z,22.62
2022-08-26T02:03:13.637Z,22.59
2022-08-26T02:04:34.487Z,22.53
2022-08-26T02:05:12.162Z,22.47
2022-08-26T02:06:04.421Z,22.55
2022-08-26T02:06:39.134Z,22.62
2022-08-26T02:07:27.439Z,22.57
2022-08-26T02:08:01.401Z,22.44
2022-08-26T02:08:50.471Z,22.45
2022-08-26T02:09:25.262Z,22.44
2022-08-26T02:10:13.430Z,22.45
2022-08-26T02:10:48.177Z,22.45
2022-08-26T02:11:36.830Z,22.36
2022-08-26T02:12:12.909Z,22.41
2022-08-26T02:12:55.452Z,22.40
2022-08-26T02:13:33.652Z,22.43
2022-08-26T02:14:26.932Z,22.24
2022-08-26T02:15:12.419Z,22.24
2022-08-26T02:15:49.676Z,22.23
2022-08-26T02:16:26.247Z,22.16
2022-08-26T02:17:07.417Z,22.18
2022-08-26T02:17:46.554Z,22.29
2022-08-26T02:18:29.450Z,22.21
2022-08-26T02:19:16.872Z,22.31
2022-08-26T02:19:58.400Z,22.24
2022-08-26T02:20:38.503Z,22.13
2022-08-26T02:21:19.396Z,22.13
2022-08-26T02:22:00.479Z,22.24
2022-08-26T02:22:42.425Z,22.16
2022-08-26T02:23:26.495Z,22.16
2022-08-26T02:24:18.445Z,22.10
2022-08-26T02:25:03.493Z,22.19
2022-08-26T02:26:19.491Z,22.15
2022-08-26T02:27:01.387Z,22.15
2022-08-26T02:27:43.401Z,22.21
2022-08-26T02:28:26.684Z,22.26
2022-08-26T02:29:23.440Z,22.33
2022-08-26T02:30:24.473Z,22.21
2022-08-26T02:31:06.443Z,22.23
2022-08-26T02:31:48.543Z,22.16
2022-08-26T02:32:28.406Z,22.17
2022-08-26T02:33:09.564Z,22.09
2022-08-26T02:33:49.388Z,22.16
2022-08-26T02:34:45.429Z,22.22
2022-08-26T02:35:22.712Z,22.19
2022-08-26T02:36:10.400Z,22.14
2022-08-26T02:36:46.178Z,22.19
2022-08-26T02:37:33.985Z,22.20
2022-08-26T02:38:11.234Z,22.21
2022-08-26T02:38:58.392Z,22.15
2022-08-26T02:39:33.011Z,22.11
2022-08-26T02:40:16.498Z,22.11
2022-08-26T02:40:50.495Z,22.08
2022-08-26T02:41:25.133Z,22.20
2022-08-26T02:42:06.392Z,22.23
2022-08-26T02:42:40.538Z,22.24
2022-08-26T02:43:16.901Z,22.15
2022-08-26T02:43:57.400Z,22.16
2022-08-26T02:44:32.472Z,22.18
2022-08-26T02:45:09.441Z,22.14
2022-08-26T02:45:50.493Z,22.17
2022-08-26T02:46:30.052Z,22.24
2022-08-26T02:47:04.296Z,22.29
2022-08-26T02:47:45.377Z,22.23
2022-08-26T02:48:25.517Z,22.29
2022-08-26T02:48:59.433Z,22.22
2022-08-26T02:49:39.401Z,22.22
2022-08-26T02:50:18.448Z,22.16
2022-08-26T02:50:58.444Z,22.04
2022-08-26T02:51:39.463Z,22.08
2022-08-26T02:52:20.381Z,22.04
2022-08-26T02:53:01.669Z,22.09
2022-08-26T02:53:42.384Z,22.17
2022-08-26T02:54:25.465Z,22.11
2022-08-26T02:55:05.401Z,21.84
2022-08-26T02:55:49.356Z,21.96
2022-08-26T02:56:30.418Z,21.96
2022-08-26T02:57:11.535Z,21.93
2022-08-26T02:57:51.374Z,21.85
2022-08-26T02:58:32.443Z,21.90
2022-08-26T02:59:12.377Z,21.91
2022-08-26T02:59:52.439Z,21.92
2022-08-26T03:00:32.386Z,21.89
2022-08-26T03:01:13.572Z,21.93
2022-08-26T03:01:56.508Z,21.85
2022-08-26T03:02:36.480Z,22.01
2022-08-26T03:03:16.381Z,21.95
2022-08-26T03:03:58.490Z,21.88
2022-08-26T03:04:38.369Z,21.93
2022-08-26T03:05:22.066Z,22.00
2022-08-26T03:06:04.378Z,21.96
2022-08-26T03:06:46.968Z,21.95
2022-08-26T03:07:33.431Z,22.05
2022-08-26T03:08:15.533Z,21.94
2022-08-26T03:08:55.382Z,22.04
2022-08-26T03:09:35.432Z,21.99
2022-08-26T03:10:16.382Z,21.85
2022-08-26T03:10:56.454Z,21.84
2022-08-26T03:11:38.369Z,21.76
2022-08-26T03:12:20.329Z,21.79
2022-08-26T03:13:01.445Z,21.88
2022-08-26T03:13:46.484Z,21.80
2022-08-26T03:14:27.379Z,21.87
2022-08-26T03:15:16.497Z,21.87
2022-08-26T03:15:58.389Z,21.78
2022-08-26T03:16:43.507Z,21.85
2022-08-26T03:17:23.364Z,21.76
2022-08-26T03:18:14.403Z,21.76
2022-08-26T03:18:52.288Z,21.81
2022-08-26T03:19:39.349Z,21.74
2022-08-26T03:20:17.357Z,21.68
2022-08-26T03:21:04.378Z,21.75
2022-08-26T03:21:39.356Z,21.64
2022-08-26T03:22:27.369Z,21.66
2022-08-26T03:23:01.164Z,21.68
2022-08-26T03:23:42.388Z,21.66
2022-08-26T03:24:19.435Z,21.62
2022-08-26T03:24:54.405Z,21.57
2022-08-26T03:25:35.349Z,21.60
2022-08-26T03:26:10.911Z,21.68
2022-08-26T03:26:52.743Z,21.66
2022-08-26T03:27:33.358Z,21.55
2022-08-26T03:28:07.696Z,21.69
2022-08-26T03:29:09.401Z,21.70
2022-08-26T03:30:08.293Z,21.83
2022-08-26T03:30:52.344Z,21.94
2022-08-26T03:31:32.485Z,22.00
2022-08-26T03:32:13.349Z,21.97
2022-08-26T03:32:53.481Z,21.94
2022-08-26T03:33:34.373Z,22.08
2022-08-26T03:34:22.408Z,22.08
2022-08-26T03:34:56.513Z,22.06
2022-08-26T03:35:45.408Z,21.95
2022-08-26T03:36:19.328Z,21.90
2022-08-26T03:37:07.369Z,21.92
2022-08-26T03:37:42.223Z,21.93
2022-08-26T03:38:31.353Z,21.82
2022-08-26T03:39:06.454Z,21.73
2022-08-26T03:39:47.398Z,21.79
2022-08-26T03:40:21.479Z,21.69
2022-08-26T03:40:56.232Z,21.58
2022-08-26T03:41:39.364Z,21.78
2022-08-26T03:42:13.656Z,21.77
2022-08-26T03:42:48.055Z,21.93
2022-08-26T03:43:33.345Z,21.80
2022-08-26T03:44:08.782Z,21.93
2022-08-26T03:44:43.186Z,21.94
2022-08-26T03:45:26.361Z,21.80
2022-08-26T03:46:00.410Z,21.83
2022-08-26T03:46:35.194Z,21.83
2022-08-26T03:47:16.399Z,21.72
2022-08-26T03:47:51.410Z,21.78
2022-08-26T03:48:27.032Z,21.83
2022-08-26T03:49:09.361Z,21.80
2022-08-26T03:49:43.544Z,21.84
2022-08-26T03:50:22.869Z,21.88
2022-08-26T03:51:05.432Z,21.86
2022-08-26T03:51:40.449Z,21.92
2022-08-26T03:52:16.056Z,21.95
2022-08-26T03:52:59.344Z,21.94
2022-08-26T03:53:34.413Z,21.98
2022-08-26T03:54:10.103Z,22.00
2022-08-26T03:54:50.339Z,22.03
2022-08-26T03:55:25.474Z,21.94
2022-08-26T03:56:01.229Z,21.89
2022-08-26T03:56:43.359Z,21.92
2022-08-26T03:57:20.735Z,22.01
2022-08-26T03:57:56.117Z,21.93
2022-08-26T03:58:38.333Z,21.94
2022-08-26T03:59:12.449Z,21.93
2022-08-26T03:59:46.035Z,21.98
2022-08-26T04:00:27.343Z,21.97
2022-08-26T04:01:01.401Z,21.94
2022-08-26T04:01:36.189Z,21.95
2022-08-26T04:02:17.352Z,21.93
2022-08-26T04:02:55.454Z,21.92
2022-08-26T04:03:48.782Z,21.74
2022-08-26T04:04:28.320Z,21.90
2022-08-26T04:05:02.544Z,21.86
2022-08-26T04:05:37.408Z,21.92
2022-08-26T04:06:19.333Z,21.78
2022-08-26T04:06:53.428Z,21.83
2022-08-26T04:07:34.363Z,21.78
2022-08-26T04:08:14.412Z,21.63
2022-08-26T04:08:54.326Z,21.63
2022-08-26T04:09:35.140Z,21.61
2022-08-26T04:10:20.268Z,21.78
2022-08-26T04:11:01.235Z,21.60
2022-08-26T04:11:45.305Z,21.74
2022-08-26T04:12:28.429Z,21.80
2022-08-26T04:13:09.448Z,21.69
2022-08-26T04:13:49.448Z,21.68
2022-08-26T04:14:33.328Z,21.59
2022-08-26T04:15:18.422Z,21.67
2022-08-26T04:15:58.343Z,21.55
2022-08-26T04:16:39.392Z,21.58
2022-08-26T04:17:25.075Z,21.61
2022-08-26T04:18:06.376Z,21.59
2022-08-26T04:18:47.344Z,21.50
2022-08-26T04:19:29.392Z,21.40
2022-08-26T04:20:12.332Z,21.48
2022-08-26T04:20:53.388Z,21.38
2022-08-26T04:21:34.317Z,21.44
2022-08-26T04:22:14.461Z,21.28
2022-08-26T04:23:04.344Z,21.36
2022-08-26T04:23:54.340Z,21.39
2022-08-26T04:24:28.420Z,21.43
2022-08-26T04:25:15.310Z,21.50
2022-08-26T04:25:50.177Z,21.55
2022-08-26T04:26:39.576Z,21.40
2022-08-26T04:27:17.060Z,21.50
2022-08-26T04:28:04.326Z,21.59
2022-08-26T04:28:38.050Z,21.63
2022-08-26T04:29:26.328Z,21.77
2022-08-26T04:30:00.512Z,21.73
2022-08-26T04:30:38.130Z,21.79
2022-08-26T04:31:21.348Z,21.79
2022-08-26T04:31:55.913Z,21.75
2022-08-26T04:32:30.008Z,21.72
2022-08-26T04:33:12.579Z,21.64
2022-08-26T04:33:49.635Z,21.67
2022-08-26T04:34:35.346Z,21.74
2022-08-26T04:35:15.399Z,21.69
2022-08-26T04:35:56.316Z,21.52
2022-08-26T04:36:36.780Z,21.55
2022-08-26T04:37:18.313Z,21.64
2022-08-26T04:37:58.858Z,21.55
2022-08-26T04:38:41.323Z,21.70
2022-08-26T04:39:22.411Z,21.75
2022-08-26T04:40:03.407Z,21.68
2022-08-26T04:40:50.400Z,21.72
2022-08-26T04:41:31.543Z,21.79
2022-08-26T04:42:13.357Z,21.71
2022-08-26T04:42:53.296Z,21.70
2022-08-26T04:43:34.368Z,21.62
2022-08-26T04:44:14.296Z,21.59
2022-08-26T04:44:55.792Z,21.60
2022-08-26T04:45:36.346Z,21.58
2022-08-26T04:46:17.433Z,21.77
2022-08-26T04:47:00.299Z,21.62
2022-08-26T04:47:40.492Z,21.76
2022-08-26T04:48:22.286Z,21.78
2022-08-26T04:49:02.367Z,21.66
2022-08-26T04:49:42.296Z,21.59
2022-08-26T04:50:23.570Z,21.76
2022-08-26T04:51:06.389Z,21.81
2022-08-26T04:51:48.781Z,21.71
2022-08-26T04:52:30.295Z,21.65
2022-08-26T04:53:12.420Z,21.54
2022-08-26T04:53:53.300Z,21.61
2022-08-26T04:54:33.385Z,21.47
2022-08-26T04:55:14.308Z,21.58
2022-08-26T04:55:55.231Z,21.54
2022-08-26T04:56:45.300Z,21.60
2022-08-26T04:57:26.341Z,21.58
2022-08-26T04:58:06.293Z,21.53
2022-08-26T04:58:49.492Z,21.45
2022-08-26T04:59:29.284Z,21.48
2022-08-26T05:00:15.369Z,21.52
2022-08-26T05:00:59.297Z,21.52
2022-08-26T05:01:40.425Z,21.47
2022-08-26T05:02:20.338Z,21.53
2022-08-26T05:03:00.519Z,21.50
2022-08-26T05:03:40.962Z,21.58
2022-08-26T05:04:22.487Z,21.57
2022-08-26T05:05:02.286Z,21.53
2022-08-26T05:05:46.344Z,21.65
2022-08-26T05:06:27.286Z,21.71
2022-08-26T05:07:09.476Z,21.80
2022-08-26T05:07:51.304Z,21.83
2022-08-26T05:08:32.357Z,21.89
2022-08-26T05:09:13.275Z,21.92
2022-08-26T05:09:55.345Z,21.88
2022-08-26T05:10:35.268Z,21.79
2022-08-26T05:11:16.406Z,21.92
2022-08-26T05:11:57.287Z,21.98
2022-08-26T05:12:38.421Z,21.87
2022-08-26T05:13:24.308Z,21.95
2022-08-26T05:14:05.934Z,21.98
2022-08-26T05:14:48.276Z,22.04
2022-08-26T05:15:28.341Z,22.00
2022-08-26T05:16:16.349Z,21.99
2022-08-26T05:16:57.349Z,21.93
2022-08-26T05:17:38.295Z,21.89
2022-08-26T05:18:21.234Z,21.93
2022-08-26T05:19:04.315Z,22.01
2022-08-26T05:19:44.396Z,22.00
2022-08-26T05:20:26.191Z,22.01
2022-08-26T05:21:09.036Z,21.91
2022-08-26T05:21:50.284Z,21.94
2022-08-26T05:22:30.308Z,21.99
2022-08-26T05:23:11.301Z,22.04
2022-08-26T05:23:52.492Z,21.98
2022-08-26T05:24:32.318Z,21.99
2022-08-26T05:25:14.844Z,22.10
2022-08-26T05:26:00.421Z,22.08
2022-08-26T05:26:41.333Z,22.10
2022-08-26T05:27:23.269Z,22.14
2022-08-26T05:28:04.573Z,22.18
2022-08-26T05:28:46.253Z,22.09
2022-08-26T05:29:29.389Z,22.07
2022-08-26T05:30:10.286Z,22.15
2022-08-26T05:30:50.395Z,22.25
2022-08-26T05:31:35.418Z,22.26
2022-08-26T05:32:15.401Z,22.29
2022-08-26T05:32:57.285Z,22.27
2022-08-26T05:33:37.342Z,22.37
2022-08-26T05:34:21.259Z,22.33
2022-08-26T05:35:02.318Z,22.22
2022-08-26T05:35:45.292Z,22.33
2022-08-26T05:36:29.329Z,22.32
2022-08-26T05:37:13.615Z,22.24
2022-08-26T05:37:53.540Z,22.28
2022-08-26T05:38:35.261Z,22.36
2022-08-26T05:39:15.392Z,22.34
2022-08-26T05:39:56.281Z,22.30
2022-08-26T05:40:42.335Z,22.47
2022-08-26T05:41:36.464Z,22.41
2022-08-26T05:42:17.348Z,22.41
2022-08-26T05:42:59.264Z,22.42
2022-08-26T05:43:39.358Z,22.43
2022-08-26T05:44:25.256Z,22.43
2022-08-26T05:45:06.322Z,22.50
2022-08-26T05:45:54.282Z,22.58
2022-08-26T05:46:42.329Z,22.62
2022-08-26T05:47:17.926Z,22.44
2022-08-26T05:48:06.245Z,22.46
2022-08-26T05:48:41.332Z,22.56
2022-08-26T05:49:31.246Z,22.49
2022-08-26T05:50:05.804Z,22.60
2022-08-26T05:50:58.265Z,22.65
2022-08-26T05:51:32.075Z,22.63
2022-08-26T05:52:13.345Z,22.71
2022-08-26T05:52:47.342Z,22.77
2022-08-26T05:53:22.562Z,22.79
2022-08-26T05:54:05.236Z,22.67
2022-08-26T05:54:39.327Z,22.72
2022-08-26T05:55:13.932Z,22.78
2022-08-26T05:56:00.224Z,22.78
2022-08-26T05:56:34.288Z,22.63
2022-08-26T05:57:11.211Z,22.76
2022-08-26T05:57:52.286Z,22.75
2022-08-26T05:58:28.374Z,22.80
2022-08-26T05:59:05.330Z,22.87
2022-08-26T05:59:46.242Z,22.90
2022-08-26T06:00:22.456Z,22.87
2022-08-26T06:01:22.230Z,22.90
2022-08-26T06:02:05.336Z,22.91
2022-08-26T06:02:40.018Z,22.93
2022-08-26T06:03:22.295Z,22.94
2022-08-26T06:04:06.386Z,22.92
2022-08-26T06:04:46.310Z,22.95
2022-08-26T06:05:27.369Z,22.96
2022-08-26T06:06:20.134Z,22.91
2022-08-26T06:07:07.457Z,22.95
2022-08-26T06:08:11.427Z,23.01
2022-08-26T06:08:52.308Z,22.97
2022-08-26T06:09:26.903Z,23.01
2022-08-26T06:10:21.617Z,23.07
2022-08-26T06:11:07.285Z,23.02
2022-08-26T06:11:41.394Z,22.96
2022-08-26T06:12:16.987Z,23.09
2022-08-26T06:13:04.566Z,23.09
2022-08-26T06:13:46.355Z,23.09
2022-08-26T06:14:26.345Z,23.08
2022-08-26T06:15:06.338Z,23.03
2022-08-26T06:15:53.280Z,23.15
2022-08-26T06:16:34.930Z,23.10
2022-08-26T06:17:23.258Z,23.05
2022-08-26T06:17:57.830Z,23.03
2022-08-26T06:18:50.344Z,23.13
2022-08-26T06:19:24.387Z,23.18
2022-08-26T06:20:05.281Z,23.20
2022-08-26T06:20:53.702Z,23.26
2022-08-26T06:21:41.285Z,23.20
2022-08-26T06:22:42.167Z,23.25
2022-08-26T06:23:44.277Z,23.21
2022-08-26T06:24:43.166Z,23.33
2022-08-26T06:25:42.333Z,23.41
2022-08-26T06:26:24.353Z,23.36
2022-08-26T06:27:16.246Z,23.36
2022-08-26T06:27:56.358Z,23.39
2022-08-26T06:28:38.229Z,23.45
2022-08-26T06:29:24.726Z,23.48
2022-08-26T06:30:06.250Z,23.50
2022-08-26T06:30:55.372Z,23.45
2022-08-26T06:31:51.261Z,23.44
2022-08-26T06:32:46.378Z,23.52
2022-08-26T06:33:43.244Z,23.56
2022-08-26T06:34:38.206Z,23.56
2022-08-26T06:35:32.222Z,23.50
2022-08-26T06:36:26.304Z,23.58
2022-08-26T06:37:02.162Z,23.61
2022-08-26T06:37:50.230Z,23.66
2022-08-26T06:38:24.329Z,23.64
2022-08-26T06:39:16.225Z,23.56
2022-08-26T06:39:51.182Z,23.65
2022-08-26T06:40:39.232Z,23.61
2022-08-26T06:41:15.395Z,23.61
2022-08-26T06:41:55.260Z,23.65
2022-08-26T06:42:35.335Z,23.71
2022-08-26T06:43:17.288Z,23.77
2022-08-26T06:43:58.349Z,23.77
2022-08-26T06:44:40.984Z,23.79
2022-08-26T06:45:24.438Z,23.81
2022-08-26T06:46:17.302Z,23.80
2022-08-26T06:47:04.262Z,23.78
2022-08-26T06:47:58.230Z,23.72
2022-08-26T06:48:53.216Z,23.79
2022-08-26T06:49:48.272Z,23.83
2022-08-26T06:50:43.226Z,23.86
2022-08-26T06:51:44.217Z,23.88
2022-08-26T06:52:25.413Z,23.86
2022-08-26T06:53:05.350Z,23.92
2022-08-26T06:53:47.224Z,23.91
2022-08-26T06:54:30.250Z,23.93
2022-08-26T06:55:11.208Z,23.95
2022-08-26T06:55:53.332Z,23.96
2022-08-26T06:56:43.237Z,23.99
2022-08-26T06:57:23.366Z,23.98
2022-08-26T06:58:05.228Z,23.97
2022-08-26T06:59:01.205Z,24.00
2022-08-26T06:59:55.221Z,24.02
2022-08-26T07:00:51.398Z,24.07
2022-08-26T07:01:51.267Z,24.11
2022-08-26T07:02:46.915Z,24.06
2022-08-26T07:03:28.304Z,24.10
2022-08-26T07:04:12.278Z,24.16
2022-08-26T07:04:53.241Z,24.18
2022-08-26T07:05:39.328Z,24.11
2022-08-26T07:06:20.192Z,24.14
2022-08-26T07:07:04.396Z,24.18
2022-08-26T07:07:45.230Z,24.24
2022-08-26T07:08:25.353Z,24.25
2022-08-26T07:09:12.292Z,24.23
2022-08-26T07:09:54.432Z,24.29
2022-08-26T07:10:35.270Z,24.31
2022-08-26T07:11:19.406Z,24.26
2022-08-26T07:12:02.203Z,24.31
2022-08-26T07:12:43.292Z,24.38
2022-08-26T07:13:30.874Z,24.19
2022-08-26T07:14:11.415Z,24.26
2022-08-26T07:14:51.413Z,24.30
2022-08-26T07:15:32.373Z,24.33
2022-08-26T07:16:19.285Z,24.36
2022-08-26T07:17:01.274Z,24.31
2022-08-26T07:17:43.223Z,24.39
2022-08-26T07:18:25.733Z,24.48
2022-08-26T07:19:11.138Z,24.43
2022-08-26T07:20:01.230Z,24.48
2022-08-26T07:20:55.213Z,24.51
2022-08-26T07:21:51.218Z,24.41
2022-08-26T07:22:46.204Z,24.50
2022-08-26T07:23:40.187Z,24.54
2022-08-26T07:24:35.373Z,24.51
2022-08-26T07:25:22.222Z,24.55
2022-08-26T07:25:56.343Z,24.56
2022-08-26T07:26:45.182Z,24.50
2022-08-26T07:27:23.241Z,24.52
2022-08-26T07:28:11.194Z,24.55
2022-08-26T07:28:46.264Z,24.57
2022-08-26T07:29:33.209Z,24.58
2022-08-26T07:30:08.268Z,24.69
2022-08-26T07:30:49.233Z,24.71
2022-08-26T07:31:39.441Z,24.61
2022-08-26T07:32:27.186Z,24.70
2022-08-26T07:33:07.456Z,24.73
2022-08-26T07:33:50.183Z,24.73
2022-08-26T07:34:32.323Z,24.82
2022-08-26T07:35:14.197Z,24.84
2022-08-26T07:36:01.303Z,24.79
2022-08-26T07:36:58.735Z,24.80
2022-08-26T07:37:56.945Z,24.87
2022-08-26T07:38:54.213Z,24.90
2022-08-26T07:39:49.267Z,24.89
2022-08-26T07:40:43.233Z,24.91
2022-08-26T07:41:26.324Z,24.93
2022-08-26T07:42:09.247Z,24.98
2022-08-26T07:42:51.246Z,24.96
2022-08-26T07:43:33.521Z,24.99
2022-08-26T07:44:15.178Z,25.03
2022-08-26T07:44:56.255Z,25.00
2022-08-26T07:45:38.405Z,25.08
2022-08-26T07:46:20.733Z,25.09
2022-08-26T07:47:10.466Z,25.16
2022-08-26T07:48:07.260Z,25.14
2022-08-26T07:48:48.226Z,25.19
2022-08-26T07:49:31.374Z,25.19
2022-08-26T07:50:13.190Z,25.20
2022-08-26T07:50:54.250Z,25.20
2022-08-26T07:51:36.170Z,25.25
2022-08-26T07:52:27.075Z,25.21
2022-08-26T07:53:22.164Z,25.23
2022-08-26T07:54:07.054Z,25.30
2022-08-26T07:54:55.268Z,25.33
2022-08-26T07:55:30.318Z,25.30
2022-08-26T07:56:17.193Z,25.26
2022-08-26T07:56:51.000Z,25.38
2022-08-26T07:57:41.196Z,25.36
2022-08-26T07:58:15.007Z,25.42
2022-08-26T07:59:13.779Z,25.39
2022-08-26T07:59:48.869Z,25.46
2022-08-26T08:00:39.204Z,25.55
2022-08-26T08:01:12.951Z,25.56
2022-08-26T08:02:01.228Z,25.56
2022-08-26T08:02:35.028Z,25.52
2022-08-26T08:03:17.186Z,25.64
2022-08-26T08:03:52.334Z,25.62
2022-08-26T08:04:27.333Z,25.66
2022-08-26T08:05:08.316Z,25.62
2022-08-26T08:05:43.293Z,25.73
2022-08-26T08:06:22.318Z,25.72
2022-08-26T08:07:03.184Z,25.80
2022-08-26T08:07:44.782Z,25.77
2022-08-26T08:08:29.278Z,25.86
2022-08-26T08:09:11.299Z,25.82
2022-08-26T08:09:52.267Z,25.94
2022-08-26T08:10:34.375Z,25.94
2022-08-26T08:11:15.182Z,25.89
2022-08-26T08:11:56.260Z,25.99
2022-08-26T08:12:36.134Z,26.01
2022-08-26T08:13:18.233Z,25.99
2022-08-26T08:13:59.376Z,26.03
2022-08-26T08:14:40.091Z,26.03
2022-08-26T08:15:21.171Z,26.04
2022-08-26T08:16:01.289Z,26.07
2022-08-26T08:16:46.770Z,26.11
2022-08-26T08:17:27.270Z,26.11
2022-08-26T08:18:07.187Z,26.09
2022-08-26T08:18:56.398Z,26.14
2022-08-26T08:19:36.829Z,26.18
2022-08-26T08:20:21.221Z,26.21
2022-08-26T08:21:20.963Z,26.27
2022-08-26T08:22:05.181Z,26.24
2022-08-26T08:22:59.126Z,26.30
2022-08-26T08:23:40.249Z,26.37
2022-08-26T08:24:20.150Z,26.38
2022-08-26T08:25:00.163Z,26.32
2022-08-26T08:25:38.201Z,26.40
2022-08-26T08:26:12.057Z,26.35
2022-08-26T08:26:53.140Z,26.40
2022-08-26T08:27:30.203Z,26.42
2022-08-26T08:28:03.934Z,26.41
2022-08-26T08:28:45.130Z,26.48
2022-08-26T08:29:22.199Z,26.46
2022-08-26T08:29:56.084Z,26.58
2022-08-26T08:30:37.312Z,26.55
2022-08-26T08:31:12.516Z,26.46
2022-08-26T08:31:57.997Z,26.53
2022-08-26T08:32:39.108Z,26.59
2022-08-26T08:33:13.233Z,26.54
2022-08-26T08:33:47.535Z,26.62
2022-08-26T08:34:29.213Z,26.65
2022-08-26T08:35:10.842Z,26.68
2022-08-26T08:35:53.159Z,26.73
2022-08-26T08:36:36.067Z,26.76
2022-08-26T08:37:16.127Z,26.77
2022-08-26T08:37:58.190Z,26.78
2022-08-26T08:38:38.117Z,26.83
2022-08-26T08:39:19.227Z,26.81
2022-08-26T08:40:01.931Z,26.89
2022-08-26T08:40:48.681Z,26.88
2022-08-26T08:42:23.794Z,26.94
2022-08-26T08:43:30.189Z,26.94
2022-08-26T08:44:12.130Z,27.02
2022-08-26T08:44:55.163Z,27.08
2022-08-26T08:45:58.180Z,26.99
2022-08-26T08:46:40.488Z,27.10
2022-08-26T08:48:03.167Z,27.16
2022-08-26T08:48:51.173Z,27.16
2022-08-26T08:49:32.125Z,27.19
2022-08-26T08:50:34.985Z,27.14
2022-08-26T08:51:34.113Z,27.23
2022-08-26T08:52:33.327Z,27.23
2022-08-26T08:53:42.234Z,27.24
2022-08-26T08:54:26.349Z,27.20
2022-08-26T08:55:18.028Z,27.31
2022-08-26T08:56:25.297Z,27.37
2022-08-26T08:57:26.096Z,27.43
2022-08-26T08:58:10.081Z,27.43
2022-08-26T08:59:06.168Z,27.39
2022-08-26T08:59:43.749Z,27.41
2022-08-26T09:00:33.182Z,27.45
2022-08-26T09:01:12.215Z,27.45
2022-08-26T09:02:41.140Z,27.44
2022-08-26T09:04:00.372Z,27.60
2022-08-26T09:04:44.124Z,27.69
2022-08-26T09:05:31.850Z,27.66
2022-08-26T09:06:24.111Z,27.65
2022-08-26T09:07:11.361Z,27.58
2022-08-26T09:07:59.112Z,27.61
2022-08-26T09:08:41.158Z,27.63
2022-08-26T09:09:52.162Z,27.59
2022-08-26T09:10:39.187Z,27.66
2022-08-26T09:11:22.100Z,27.61
2022-08-26T09:12:03.255Z,27.65
2022-08-26T09:12:45.132Z,27.68
2022-08-26T09:13:27.520Z,27.69
2022-08-26T09:14:08.096Z,27.82
2022-08-26T09:14:51.109Z,27.83
2022-08-26T09:15:54.120Z,27.87
2022-08-26T09:16:51.615Z,27.90
2022-08-26T09:18:06.903Z,27.90
2022-08-26T09:19:12.408Z,27.93
2022-08-26T09:20:02.101Z,27.96
2022-08-26T09:21:12.138Z,27.95
2022-08-26T09:22:14.125Z,27.98